createdAt,value
2018-12-04T00:00:50.221Z,8.80
2018-12-04T00:03:37.755Z,8.90
2018-12-04T00:06:25.551Z,8.90
2018-12-04T00:09:13.332Z,9.00
2018-12-04T00:12:01.115Z,8.80
2018-12-04T00:14:29.629Z,9.40
2018-12-04T00:16:58.408Z,8.80
2018-12-04T00:19:46.447Z,8.80
2018-12-04T00:22:34.593Z,8.80
2018-12-04T00:25:22.334Z,8.50
2018-12-04T00:28:09.950Z,8.90
2018-12-04T00:30:57.504Z,9.00
2018-12-04T00:33:45.429Z,9.00
2018-12-04T00:36:32.983Z,9.00
2018-12-04T00:39:20.522Z,9.40
2018-12-04T00:45:08.767Z,8.50
2018-12-04T00:47:56.596Z,10.20
2018-12-04T00:50:44.736Z,9.80
2018-12-04T00:53:32.295Z,9.20
2018-12-04T00:56:20.210Z,9.50
2018-12-04T00:59:07.845Z,8.90
2018-12-04T01:01:55.412Z,10.00
2018-12-04T01:04:43.327Z,8.10
2018-12-04T01:07:30.896Z,8.20
2018-12-04T01:10:18.695Z,9.00
2018-12-04T01:13:06.372Z,10.40
2018-12-04T01:15:53.922Z,8.90
2018-12-04T01:18:41.895Z,10.20
2018-12-04T01:21:29.788Z,9.00
2018-12-04T01:24:17.332Z,8.90
2018-12-04T01:27:05.190Z,8.90
2018-12-04T01:29:52.823Z,8.90
2018-12-04T01:32:21.416Z,8.70
2018-12-04T01:35:08.959Z,9.00
2018-12-04T01:37:57.308Z,9.10
2018-12-04T01:40:45.473Z,9.10
2018-12-04T01:43:33.164Z,9.10
2018-12-04T01:46:21.068Z,9.10
2018-12-04T01:48:49.646Z,9.70
2018-12-04T01:51:37.459Z,9.10
2018-12-04T01:54:25.031Z,9.20
2018-12-04T01:57:13.128Z,9.20
2018-12-04T01:59:41.607Z,8.60
2018-12-04T02:02:29.265Z,9.20
2018-12-04T02:05:16.819Z,11.00
2018-12-04T02:08:04.399Z,9.20
2018-12-04T02:10:52.432Z,8.90
2018-12-04T02:13:39.971Z,9.20
2018-12-04T02:16:27.539Z,8.70
2018-12-04T02:19:15.107Z,9.20
2018-12-04T02:22:03.027Z,9.70
2018-12-04T02:24:50.693Z,10.60
2018-12-04T02:27:38.349Z,9.20
2018-12-04T02:30:25.977Z,9.10
2018-12-04T02:33:13.555Z,9.50
2018-12-04T02:36:01.648Z,8.50
2018-12-04T02:38:49.204Z,8.80
2018-12-04T02:41:29.353Z,8.90
2018-12-04T02:44:09.777Z,9.10
2018-12-04T02:46:50.463Z,8.60
2018-12-04T02:49:30.600Z,9.10
2018-12-04T02:52:10.952Z,10.10
2018-12-04T02:54:51.772Z,9.10
2018-12-04T02:57:31.700Z,9.10
2018-12-04T03:00:11.928Z,8.50
2018-12-04T03:02:51.941Z,9.20
2018-12-04T03:05:32.697Z,8.30
2018-12-04T03:08:13.343Z,8.90
2018-12-04T03:10:54.287Z,8.90
2018-12-04T03:13:34.667Z,8.90
2018-12-04T03:16:03.181Z,10.20
2018-12-04T03:18:31.805Z,9.00
2018-12-04T03:21:19.637Z,9.10
2018-12-04T03:24:07.207Z,9.20
2018-12-04T03:26:54.751Z,9.20
2018-12-04T03:29:42.648Z,8.50
2018-12-04T03:32:30.569Z,9.70
2018-12-04T03:35:18.142Z,9.30
2018-12-04T03:38:05.684Z,9.20
2018-12-04T03:40:53.341Z,9.60
2018-12-04T03:43:40.896Z,9.20
2018-12-04T03:46:28.866Z,9.10
2018-12-04T03:48:57.399Z,9.10
2018-12-04T03:51:45.037Z,9.00
2018-12-04T03:54:32.832Z,9.00
2018-12-04T03:57:20.485Z,10.60
2018-12-04T04:00:08.252Z,9.00
2018-12-04T04:02:55.924Z,9.00
2018-12-04T04:05:43.641Z,9.10
2018-12-04T04:08:31.279Z,9.60
2018-12-04T04:11:19.032Z,9.00
2018-12-04T04:14:06.674Z,8.40
2018-12-04T04:16:54.826Z,8.20
2018-12-04T04:19:42.548Z,9.80
2018-12-04T04:22:30.492Z,9.10
2018-12-04T04:25:18.052Z,10.20
2018-12-04T04:28:05.598Z,9.20
2018-12-04T04:30:53.432Z,11.10
2018-12-04T04:33:41.089Z,8.50
2018-12-04T04:36:28.739Z,9.70
2018-12-04T04:38:57.466Z,8.70
2018-12-04T04:41:45.044Z,9.30
2018-12-04T04:44:32.599Z,9.50
2018-12-04T04:47:20.524Z,11.30
2018-12-04T04:50:08.883Z,9.30
2018-12-04T04:52:37.975Z,9.50
2018-12-04T04:55:26.417Z,9.20
2018-12-04T04:58:14.276Z,8.10
2018-12-04T05:01:02.210Z,9.10
2018-12-04T05:03:49.965Z,9.10
2018-12-04T05:06:37.763Z,9.10
2018-12-04T05:09:07.434Z,9.80
2018-12-04T05:11:36.023Z,9.10
2018-12-04T05:14:04.828Z,8.00
2018-12-04T05:16:33.531Z,9.10
2018-12-04T05:19:21.190Z,9.10
2018-12-04T05:22:08.860Z,9.00
2018-12-04T05:24:37.374Z,9.10
2018-12-04T05:27:25.016Z,9.20
2018-12-04T05:30:12.692Z,9.20
2018-12-04T05:33:00.537Z,9.20
2018-12-04T05:35:48.421Z,8.50
2018-12-04T05:38:36.261Z,9.20
2018-12-04T05:41:04.777Z,9.30
2018-12-04T05:43:52.608Z,9.10
2018-12-04T05:46:21.030Z,8.40
2018-12-04T05:48:49.475Z,9.10
2018-12-04T05:51:37.032Z,9.20
2018-12-04T05:54:24.601Z,9.10
2018-12-04T05:57:12.168Z,9.20
2018-12-04T06:00:00.216Z,9.20
2018-12-04T06:02:47.840Z,10.40
2018-12-04T06:05:35.539Z,9.20
2018-12-04T06:08:23.215Z,8.60
2018-12-04T06:11:10.997Z,9.30
2018-12-04T06:13:58.555Z,9.20
2018-12-04T06:16:46.457Z,9.20
2018-12-04T06:19:34.056Z,8.70
2018-12-04T06:22:21.948Z,9.30
2018-12-04T06:25:09.897Z,9.10
2018-12-04T06:27:57.835Z,8.50
2018-12-04T06:30:45.672Z,9.30
2018-12-04T06:33:33.337Z,9.10
2018-12-04T06:36:20.996Z,9.00
2018-12-04T06:39:09.519Z,9.00
2018-12-04T06:41:57.427Z,9.00
2018-12-04T06:44:25.903Z,10.70
2018-12-04T06:46:54.674Z,9.00
2018-12-04T06:49:42.528Z,9.00
2018-12-04T06:52:30.071Z,8.40
2018-12-04T06:55:17.906Z,8.70
2018-12-04T06:57:54.651Z,9.00
2018-12-04T07:00:42.601Z,9.00
2018-12-04T07:03:30.152Z,9.10
2018-12-04T07:05:58.932Z,8.70
2018-12-04T07:08:46.846Z,9.00
2018-12-04T07:11:34.533Z,10.20
2018-12-04T07:14:22.427Z,8.50
2018-12-04T07:17:10.260Z,9.00
2018-12-04T07:19:58.635Z,8.90
2018-12-04T07:22:46.176Z,9.00
2018-12-04T07:25:33.883Z,9.20
2018-12-04T07:28:21.428Z,8.80
2018-12-04T07:31:08.979Z,9.60
2018-12-04T07:33:56.542Z,10.30
2018-12-04T07:36:44.118Z,9.60
2018-12-04T07:39:32.247Z,8.40
2018-12-04T07:42:20.063Z,8.80
2018-12-04T07:45:08.020Z,8.70
2018-12-04T07:47:36.476Z,9.10
2018-12-04T07:50:24.137Z,8.60
2018-12-04T07:53:11.704Z,8.60
2018-12-04T07:55:59.600Z,8.60
2018-12-04T07:58:47.156Z,8.60
2018-12-04T08:01:35.105Z,8.00
2018-12-04T08:04:22.884Z,8.60
2018-12-04T08:07:10.444Z,8.60
2018-12-04T08:09:58.017Z,8.60
2018-12-04T08:12:45.667Z,8.60
2018-12-04T08:15:33.464Z,9.30
2018-12-04T08:18:21.048Z,8.60
2018-12-04T08:21:08.783Z,8.60
2018-12-04T08:23:56.754Z,8.60
2018-12-04T08:26:25.684Z,8.60
2018-12-04T08:29:13.597Z,8.70
2018-12-04T08:32:01.285Z,8.70
2018-12-04T08:34:49.137Z,8.80
2018-12-04T08:37:17.892Z,8.70
2018-12-04T08:40:06.180Z,8.80
2018-12-04T08:48:30.596Z,8.80
2018-12-04T08:51:18.156Z,8.70
2018-12-04T08:54:06.056Z,8.80
2018-12-04T08:56:54.028Z,8.10
2018-12-04T08:59:41.600Z,10.00
2018-12-04T09:02:29.247Z,8.70
2018-12-04T09:04:57.679Z,9.40
2018-12-04T09:07:45.512Z,9.00
2018-12-04T09:10:33.061Z,8.70
2018-12-04T09:13:20.765Z,8.80
2018-12-04T09:16:08.555Z,9.80
2018-12-04T09:18:56.278Z,9.60
2018-12-04T09:24:32.802Z,10.70
2018-12-04T09:27:20.830Z,12.70
2018-12-04T09:30:09.530Z,11.20
2018-12-04T09:32:57.367Z,10.90
2018-12-04T09:35:45.224Z,10.30
2018-12-04T09:38:32.880Z,9.40
2018-12-04T09:41:20.535Z,9.10
2018-12-04T09:44:08.171Z,8.90
2018-12-04T09:46:56.020Z,8.70
2018-12-04T09:49:43.598Z,9.80
2018-12-04T09:52:31.136Z,9.10
2018-12-04T09:55:19.048Z,8.70
2018-12-04T09:58:06.890Z,8.70
2018-12-04T10:03:50.233Z,8.60
2018-12-04T10:06:38.472Z,9.70
2018-12-04T10:09:26.316Z,9.10
2018-12-04T10:11:54.865Z,8.80
2018-12-04T10:14:43.032Z,9.50
2018-12-04T10:17:30.601Z,9.50
2018-12-04T10:20:18.285Z,9.50
2018-12-04T10:23:06.018Z,11.00
2018-12-04T10:25:53.689Z,9.20
2018-12-04T10:28:41.695Z,9.00
2018-12-04T10:31:29.380Z,9.20
2018-12-04T10:34:17.575Z,8.60
2018-12-04T10:37:05.239Z,8.90
2018-12-04T10:39:52.876Z,8.80
2018-12-04T10:42:40.676Z,9.20
2018-12-04T10:45:28.325Z,8.90
2018-12-04T10:48:15.868Z,8.90
2018-12-04T10:51:03.865Z,9.20
2018-12-04T10:53:51.421Z,11.10
2018-12-04T10:56:38.976Z,9.50
2018-12-04T10:59:26.520Z,9.30
2018-12-04T11:02:33.583Z,9.00
2018-12-04T11:05:21.115Z,9.50
2018-12-04T11:08:08.903Z,9.20
2018-12-04T11:10:56.570Z,8.90
2018-12-04T11:13:44.130Z,9.70
2018-12-04T11:16:32.047Z,10.20
2018-12-04T11:19:20.048Z,9.90
2018-12-04T11:22:08.185Z,8.90
2018-12-04T11:24:55.762Z,9.60
2018-12-04T11:27:43.746Z,9.50
2018-12-04T11:30:31.828Z,9.20
2018-12-04T11:33:19.639Z,9.50
2018-12-04T11:36:07.195Z,10.20
2018-12-04T11:38:55.095Z,9.00
2018-12-04T11:41:42.740Z,9.20
2018-12-04T11:44:30.309Z,10.90
2018-12-04T11:47:18.010Z,9.00
2018-12-04T11:50:05.899Z,8.50
2018-12-04T11:52:54.087Z,8.60
2018-12-04T11:55:41.972Z,8.80
2018-12-04T11:58:29.660Z,8.70
2018-12-04T12:01:36.689Z,8.80
2018-12-04T12:04:24.684Z,8.60
2018-12-04T12:07:12.508Z,8.60
2018-12-04T12:10:00.923Z,8.80
2018-12-04T12:12:49.980Z,9.10
2018-12-04T12:15:37.965Z,8.20
2018-12-04T12:18:26.441Z,8.00
2018-12-04T12:20:55.166Z,8.70
2018-12-04T12:23:42.796Z,8.70
2018-12-04T12:26:30.352Z,8.70
2018-12-04T12:29:18.024Z,8.60
2018-12-04T12:31:46.700Z,8.60
2018-12-04T12:34:34.654Z,8.70
2018-12-04T12:37:22.382Z,8.50
2018-12-04T12:40:09.968Z,7.90
2018-12-04T12:42:57.872Z,8.50
2018-12-04T12:45:46.253Z,8.70
2018-12-04T12:48:34.220Z,8.10
2018-12-04T12:51:03.561Z,8.00
2018-12-04T12:53:51.606Z,8.20
2018-12-04T12:56:20.611Z,9.70
2018-12-04T12:58:49.712Z,7.90
2018-12-04T13:01:37.452Z,8.00
2018-12-04T13:04:25.031Z,8.00
2018-12-04T13:07:12.608Z,8.20
2018-12-04T13:10:00.637Z,7.10
2018-12-04T13:12:48.455Z,7.50
2018-12-04T13:15:36.040Z,7.60
2018-12-04T13:18:24.239Z,9.10
2018-12-04T13:21:04.360Z,8.30
2018-12-04T13:23:45.086Z,7.70
2018-12-04T13:26:25.341Z,8.70
2018-12-04T13:29:05.906Z,7.60
2018-12-04T13:31:47.068Z,7.80
2018-12-04T13:37:11.772Z,7.80
2018-12-04T13:39:52.516Z,7.50
2018-12-04T13:42:33.145Z,9.50
2018-12-04T13:45:14.441Z,8.00
2018-12-04T13:47:54.856Z,8.00
2018-12-04T13:50:34.976Z,8.00
2018-12-04T13:53:15.835Z,8.10
2018-12-04T13:55:55.959Z,8.80
2018-12-04T13:58:24.663Z,9.00
2018-12-04T14:01:12.631Z,8.00
2018-12-04T14:04:00.683Z,8.00
2018-12-04T14:07:10.061Z,8.00
2018-12-04T14:09:57.730Z,7.70
2018-12-04T14:12:45.591Z,6.70
2018-12-04T14:15:33.641Z,7.60
2018-12-04T14:18:21.878Z,7.80
2018-12-04T14:21:11.090Z,7.70
2018-12-04T14:23:59.229Z,7.50
2018-12-04T14:26:47.456Z,7.70
2018-12-04T14:29:36.222Z,7.70
2018-12-04T14:32:24.639Z,7.60
2018-12-04T14:35:12.302Z,7.10
2018-12-04T14:38:00.737Z,7.50
2018-12-04T14:43:42.634Z,7.50
2018-12-04T14:46:30.500Z,8.10
2018-12-04T14:49:18.071Z,7.20
2018-12-04T14:52:05.745Z,7.40
2018-12-04T14:54:53.984Z,6.70
2018-12-04T14:57:41.660Z,7.40
2018-12-04T15:00:29.824Z,8.40
2018-12-04T15:03:17.690Z,7.10
2018-12-04T15:05:46.515Z,6.90
2018-12-04T15:08:34.366Z,7.20
2018-12-04T15:11:22.367Z,7.20
2018-12-04T15:14:10.248Z,7.20
2018-12-04T15:16:58.455Z,7.20
2018-12-04T15:19:27.089Z,7.00
2018-12-04T15:22:15.162Z,7.00
2018-12-04T15:25:03.232Z,8.00
2018-12-04T15:27:50.966Z,7.00
2018-12-04T15:30:38.707Z,6.80
2018-12-04T15:33:26.385Z,6.70
2018-12-04T15:36:14.022Z,7.00
2018-12-04T15:44:37.930Z,6.60
2018-12-04T15:47:25.930Z,6.30
2018-12-04T15:50:13.603Z,6.60
2018-12-04T15:53:01.452Z,6.50
2018-12-04T15:55:49.473Z,6.50
2018-12-04T15:58:37.130Z,6.70
2018-12-04T16:01:25.024Z,6.70
2018-12-04T16:04:12.995Z,8.00
2018-12-04T16:07:00.559Z,6.70
2018-12-04T16:09:48.388Z,6.70
2018-12-04T16:12:36.184Z,6.40
2018-12-04T16:15:23.853Z,6.50
2018-12-04T16:18:12.260Z,6.50
2018-12-04T16:21:00.168Z,6.40
2018-12-04T16:23:47.983Z,6.80
2018-12-04T16:26:35.772Z,7.40
2018-12-04T16:29:23.763Z,6.80
2018-12-04T16:32:11.444Z,7.50
2018-12-04T16:34:59.103Z,5.20
2018-12-04T16:37:46.668Z,5.90
2018-12-04T16:40:34.240Z,5.80
2018-12-04T16:43:21.900Z,5.00
2018-12-04T16:46:09.636Z,5.40
2018-12-04T16:48:57.944Z,5.90
2018-12-04T16:51:45.783Z,5.20
2018-12-04T16:54:33.369Z,5.10
2018-12-04T16:57:21.012Z,5.80
2018-12-04T16:59:49.719Z,4.70
2018-12-04T17:02:37.333Z,5.20
2018-12-04T17:05:25.027Z,5.10
2018-12-04T17:08:12.584Z,5.10
2018-12-04T17:11:00.564Z,5.30
2018-12-04T17:13:48.144Z,5.00
2018-12-04T17:19:35.356Z,4.00
2018-12-04T17:22:23.112Z,4.80
2018-12-04T17:25:10.812Z,5.80
2018-12-04T17:27:58.776Z,4.50
2018-12-04T17:30:46.972Z,4.60
2018-12-04T17:33:15.404Z,3.80
2018-12-04T17:36:03.315Z,4.40
2018-12-04T17:38:50.996Z,5.30
2018-12-04T17:41:38.932Z,4.30
2018-12-04T17:44:26.501Z,3.60
2018-12-04T17:47:14.176Z,4.30
2018-12-04T17:50:02.187Z,4.20
2018-12-04T17:52:50.737Z,4.10
2018-12-04T17:55:38.614Z,5.50
2018-12-04T17:58:26.928Z,3.90
2018-12-04T18:01:14.512Z,5.80
2018-12-04T18:04:02.479Z,4.00
2018-12-04T18:06:50.243Z,4.20
2018-12-04T18:09:37.805Z,4.00
2018-12-04T18:12:25.620Z,3.00
2018-12-04T18:15:13.885Z,4.90
2018-12-04T18:18:01.796Z,3.80
2018-12-04T18:20:49.976Z,4.30
2018-12-04T18:23:37.886Z,3.70
2018-12-04T18:26:25.740Z,3.80
2018-12-04T18:29:13.298Z,3.70
2018-12-04T18:32:01.132Z,3.70
2018-12-04T18:34:49.036Z,3.60
2018-12-04T18:37:37.277Z,5.30
2018-12-04T18:40:25.044Z,3.70
2018-12-04T18:43:13.009Z,3.50
2018-12-04T18:46:00.976Z,3.50
2018-12-04T18:48:48.836Z,3.70
2018-12-04T18:51:36.412Z,3.50
2018-12-04T18:54:24.169Z,3.40
2018-12-04T18:57:12.332Z,2.90
2018-12-04T18:59:59.922Z,3.40
2018-12-04T19:02:47.596Z,3.40
2018-12-04T19:05:35.414Z,2.50
2018-12-04T19:08:42.307Z,3.30
2018-12-04T19:11:29.980Z,3.30
2018-12-04T19:14:18.064Z,4.50
2018-12-04T19:17:05.680Z,3.20
2018-12-04T19:19:53.364Z,3.10
2018-12-04T19:22:42.044Z,3.20
2018-12-04T19:25:31.084Z,4.50
2018-12-04T19:28:19.026Z,3.10
2018-12-04T19:31:08.134Z,3.00
2018-12-04T19:33:56.425Z,3.10
2018-12-04T19:36:44.017Z,2.80
2018-12-04T19:39:31.852Z,3.00
2018-12-04T19:42:19.705Z,2.90
2018-12-04T19:45:07.743Z,2.80
2018-12-04T19:47:55.657Z,2.80
2018-12-04T19:50:43.252Z,1.80
2018-12-04T19:53:31.575Z,3.00
2018-12-04T19:56:00.544Z,2.60
2018-12-04T19:58:48.744Z,2.70
2018-12-04T20:01:36.504Z,2.70
2018-12-04T20:04:24.504Z,2.30
2018-12-04T20:07:13.616Z,1.60
2018-12-04T20:10:01.586Z,2.50
2018-12-04T20:12:49.302Z,2.50
2018-12-04T20:15:37.095Z,3.80
2018-12-04T20:18:24.851Z,2.60
2018-12-04T20:21:12.590Z,2.20
2018-12-04T20:24:00.527Z,1.70
2018-12-04T20:26:48.350Z,2.20
2018-12-04T20:29:35.930Z,2.30
2018-12-04T20:32:23.874Z,2.20
2018-12-04T20:35:12.096Z,1.50
2018-12-04T20:37:59.924Z,2.40
2018-12-04T20:40:47.950Z,2.30
2018-12-04T20:43:16.708Z,2.10
2018-12-04T20:46:06.028Z,2.10
2018-12-04T20:48:54.668Z,1.40
2018-12-04T20:51:42.625Z,2.80
2018-12-04T20:56:58.745Z,2.10
2018-12-04T20:59:46.746Z,2.00
2018-12-04T21:02:34.462Z,2.00
2018-12-04T21:05:22.157Z,1.30
2018-12-04T21:08:09.699Z,1.60
2018-12-04T21:10:57.463Z,1.80
2018-12-04T21:13:45.074Z,1.20
2018-12-04T21:16:33.355Z,1.80
2018-12-04T21:19:20.947Z,1.70
2018-12-04T21:22:09.340Z,1.70
2018-12-04T21:24:56.940Z,1.20
2018-12-04T21:28:04.212Z,3.40
2018-12-04T21:31:11.273Z,2.30
2018-12-04T21:34:18.163Z,1.20
2018-12-04T21:37:25.425Z,2.30
2018-12-04T21:46:45.674Z,1.80
2018-12-04T21:49:33.500Z,1.00
2018-12-04T21:52:21.141Z,2.90
2018-12-04T21:55:08.808Z,1.60
2018-12-04T21:57:56.489Z,1.60
2018-12-04T22:00:44.453Z,0.90
2018-12-04T22:03:32.248Z,1.50
2018-12-04T22:06:19.949Z,1.50
2018-12-04T22:09:08.046Z,1.70
2018-12-04T22:11:56.010Z,0.70
2018-12-04T22:14:43.702Z,1.60
2018-12-04T22:17:31.396Z,1.10
2018-12-04T22:20:20.010Z,1.10
2018-12-04T22:23:07.820Z,2.40
2018-12-04T22:25:55.832Z,1.40
2018-12-04T22:28:43.659Z,1.40
2018-12-04T22:31:31.725Z,0.80
2018-12-04T22:34:19.688Z,2.50
2018-12-04T22:37:07.580Z,3.10
2018-12-04T22:39:55.147Z,2.30
2018-12-04T22:42:43.158Z,0.20
2018-12-04T22:45:30.718Z,1.60
2018-12-04T22:48:18.298Z,2.10
2018-12-04T22:51:06.220Z,1.20
2018-12-04T22:53:53.867Z,1.10
2018-12-04T22:56:41.704Z,0.30
2018-12-04T22:59:30.085Z,1.90
2018-12-04T23:02:17.740Z,0.60
2018-12-04T23:05:05.739Z,1.40
2018-12-04T23:07:53.712Z,1.00
2018-12-04T23:10:41.835Z,1.00
2018-12-04T23:13:29.457Z,1.00
2018-12-04T23:16:17.097Z,2.60
2018-12-04T23:19:12.121Z,2.10
2018-12-04T23:22:00.121Z,0.80
2018-12-04T23:24:48.064Z,3.10
2018-12-04T23:27:35.733Z,1.10
2018-12-04T23:30:23.736Z,1.70
2018-12-04T23:33:11.668Z,1.10
2018-12-04T23:35:59.574Z,1.00
2018-12-04T23:38:47.127Z,1.00
2018-12-04T23:41:34.985Z,0.40
2018-12-04T23:44:24.743Z,0.80
2018-12-04T23:47:12.582Z,0.90
2018-12-04T23:50:00.256Z,0.40
2018-12-04T23:52:47.899Z,0.70
2018-12-04T23:55:35.613Z,1.20
2018-12-04T23:58:23.608Z,0.40
